sensor_id;sensor_type;location;lat;lon;timestamp;temperature;humidity
4097;DHT22;2062;50.694;7.246;2023-07-31T00:00:13;18.50;55.30
4097;DHT22;2062;50.694;7.246;2023-07-31T00:02:41;18.60;55.90
4097;DHT22;2062;50.694;7.246;2023-07-31T00:05:08;18.60;55.20
4097;DHT22;2062;50.694;7.246;2023-07-31T00:07:35;18.50;55.20
4097;DHT22;2062;50.694;7.246;2023-07-31T00:10:02;18.60;55.40
4097;DHT22;2062;50.694;7.246;2023-07-31T00:12:30;18.50;55.50
4097;DHT22;2062;50.694;7.246;2023-07-31T00:14:58;18.50;55.50
4097;DHT22;2062;50.694;7.246;2023-07-31T00:17:25;18.70;55.60
4097;DHT22;2062;50.694;7.246;2023-07-31T00:19:51;18.60;55.60
4097;DHT22;2062;50.694;7.246;2023-07-31T00:22:18;18.60;55.50
4097;DHT22;2062;50.694;7.246;2023-07-31T00:24:45;18.60;55.50
4097;DHT22;2062;50.694;7.246;2023-07-31T00:27:11;18.60;55.50
4097;DHT22;2062;50.694;7.246;2023-07-31T00:29:40;18.60;55.50
4097;DHT22;2062;50.694;7.246;2023-07-31T00:32:07;18.60;55.50
4097;DHT22;2062;50.694;7.246;2023-07-31T00:34:34;18.50;55.50
4097;DHT22;2062;50.694;7.246;2023-07-31T00:37:00;18.60;55.50
4097;DHT22;2062;50.694;7.246;2023-07-31T00:39:27;18.60;55.50
4097;DHT22;2062;50.694;7.246;2023-07-31T00:41:54;18.60;55.60
4097;DHT22;2062;50.694;7.246;2023-07-31T00:44:21;18.60;55.60
4097;DHT22;2062;50.694;7.246;2023-07-31T00:46:49;18.60;55.70
4097;DHT22;2062;50.694;7.246;2023-07-31T00:49:16;18.60;55.70
4097;DHT22;2062;50.694;7.246;2023-07-31T00:51:43;18.60;55.90
4097;DHT22;2062;50.694;7.246;2023-07-31T00:54:09;18.60;55.90
4097;DHT22;2062;50.694;7.246;2023-07-31T00:56:38;18.50;55.80
4097;DHT22;2062;50.694;7.246;2023-07-31T00:59:05;18.60;55.90
4097;DHT22;2062;50.694;7.246;2023-07-31T01:01:31;18.60;56.00
4097;DHT22;2062;50.694;7.246;2023-07-31T01:04:00;18.50;56.30
4097;DHT22;2062;50.694;7.246;2023-07-31T01:06:44;18.60;56.20
4097;DHT22;2062;50.694;7.246;2023-07-31T01:09:19;18.50;56.20
4097;DHT22;2062;50.694;7.246;2023-07-31T01:11:53;18.50;56.30
4097;DHT22;2062;50.694;7.246;2023-07-31T01:14:20;18.50;56.30
4097;DHT22;2062;50.694;7.246;2023-07-31T01:16:46;18.50;56.30
4097;DHT22;2062;50.694;7.246;2023-07-31T01:19:17;18.50;56.30
4097;DHT22;2062;50.694;7.246;2023-07-31T01:22:12;18.50;56.20
4097;DHT22;2062;50.694;7.246;2023-07-31T01:24:54;18.50;56.50
4097;DHT22;2062;50.694;7.246;2023-07-31T01:27:25;18.50;56.70
4097;DHT22;2062;50.694;7.246;2023-07-31T01:29:59;18.50;56.70
4097;DHT22;2062;50.694;7.246;2023-07-31T01:32:28;18.50;56.50
4097;DHT22;2062;50.694;7.246;2023-07-31T01:34:55;18.50;56.60
4097;DHT22;2062;50.694;7.246;2023-07-31T01:37:28;18.50;56.80
4097;DHT22;2062;50.694;7.246;2023-07-31T01:39:55;18.50;56.70
4097;DHT22;2062;50.694;7.246;2023-07-31T01:42:23;18.50;56.90
4097;DHT22;2062;50.694;7.246;2023-07-31T01:44:50;18.50;57.00
4097;DHT22;2062;50.694;7.246;2023-07-31T01:47:17;18.50;57.10
4097;DHT22;2062;50.694;7.246;2023-07-31T01:49:44;18.50;57.30
4097;DHT22;2062;50.694;7.246;2023-07-31T01:52:10;18.50;57.40
4097;DHT22;2062;50.694;7.246;2023-07-31T01:54:37;18.50;57.40
4097;DHT22;2062;50.694;7.246;2023-07-31T01:57:04;18.50;57.40
4097;DHT22;2062;50.694;7.246;2023-07-31T01:59:33;18.50;57.30
4097;DHT22;2062;50.694;7.246;2023-07-31T02:01:59;18.50;57.30
4097;DHT22;2062;50.694;7.246;2023-07-31T02:04:26;18.50;57.50
4097;DHT22;2062;50.694;7.246;2023-07-31T02:06:53;18.50;57.40
4097;DHT22;2062;50.694;7.246;2023-07-31T02:09:20;18.50;57.30
4097;DHT22;2062;50.694;7.246;2023-07-31T02:11:46;18.40;57.30
4097;DHT22;2062;50.694;7.246;2023-07-31T02:14:13;18.50;57.50
4097;DHT22;2062;50.694;7.246;2023-07-31T02:16:41;18.40;57.50
4097;DHT22;2062;50.694;7.246;2023-07-31T02:19:09;18.40;57.50
4097;DHT22;2062;50.694;7.246;2023-07-31T02:21:35;18.40;57.50
4097;DHT22;2062;50.694;7.246;2023-07-31T02:24:02;18.40;57.40
4097;DHT22;2062;50.694;7.246;2023-07-31T02:26:29;18.40;57.30
4097;DHT22;2062;50.694;7.246;2023-07-31T02:28:56;18.40;57.40
4097;DHT22;2062;50.694;7.246;2023-07-31T02:31:23;18.40;57.60
4097;DHT22;2062;50.694;7.246;2023-07-31T02:33:51;18.40;57.50
4097;DHT22;2062;50.694;7.246;2023-07-31T02:36:18;18.30;57.60
4097;DHT22;2062;50.694;7.246;2023-07-31T02:38:44;18.30;57.50
4097;DHT22;2062;50.694;7.246;2023-07-31T02:41:11;18.30;57.70
4097;DHT22;2062;50.694;7.246;2023-07-31T02:43:38;18.30;57.60
4097;DHT22;2062;50.694;7.246;2023-07-31T02:46:05;18.30;57.70
4097;DHT22;2062;50.694;7.246;2023-07-31T02:48:32;18.30;57.70
4097;DHT22;2062;50.694;7.246;2023-07-31T02:51:00;18.30;57.90
4097;DHT22;2062;50.694;7.246;2023-07-31T02:53:27;18.30;57.90
4097;DHT22;2062;50.694;7.246;2023-07-31T02:55:53;18.30;57.80
4097;DHT22;2062;50.694;7.246;2023-07-31T02:58:20;18.30;57.80
4097;DHT22;2062;50.694;7.246;2023-07-31T03:00:47;18.30;57.70
4097;DHT22;2062;50.694;7.246;2023-07-31T03:03:14;18.30;57.90
4097;DHT22;2062;50.694;7.246;2023-07-31T03:05:41;18.30;57.70
4097;DHT22;2062;50.694;7.246;2023-07-31T03:08:09;18.30;57.80
4097;DHT22;2062;50.694;7.246;2023-07-31T03:10:35;18.30;57.70
4097;DHT22;2062;50.694;7.246;2023-07-31T03:13:02;18.30;57.70
4097;DHT22;2062;50.694;7.246;2023-07-31T03:15:29;18.40;57.70
4097;DHT22;2062;50.694;7.246;2023-07-31T03:17:56;18.30;57.60
4097;DHT22;2062;50.694;7.246;2023-07-31T03:20:22;18.30;57.60
4097;DHT22;2062;50.694;7.246;2023-07-31T03:22:49;18.30;57.50
4097;DHT22;2062;50.694;7.246;2023-07-31T03:25:17;18.30;57.60
4097;DHT22;2062;50.694;7.246;2023-07-31T03:27:44;18.30;57.60
4097;DHT22;2062;50.694;7.246;2023-07-31T03:30:11;18.20;57.60
4097;DHT22;2062;50.694;7.246;2023-07-31T03:32:38;18.30;57.60
4097;DHT22;2062;50.694;7.246;2023-07-31T03:35:05;18.30;57.60
4097;DHT22;2062;50.694;7.246;2023-07-31T03:37:32;18.30;57.60
4097;DHT22;2062;50.694;7.246;2023-07-31T03:39:59;18.20;57.50
4097;DHT22;2062;50.694;7.246;2023-07-31T03:42:27;18.30;57.50
4097;DHT22;2062;50.694;7.246;2023-07-31T03:44:54;18.20;57.50
4097;DHT22;2062;50.694;7.246;2023-07-31T03:47:20;18.30;57.50
4097;DHT22;2062;50.694;7.246;2023-07-31T03:49:47;18.30;57.50
4097;DHT22;2062;50.694;7.246;2023-07-31T03:52:14;18.30;57.60
4097;DHT22;2062;50.694;7.246;2023-07-31T03:54:41;18.30;57.40
4097;DHT22;2062;50.694;7.246;2023-07-31T03:57:10;18.20;57.30
4097;DHT22;2062;50.694;7.246;2023-07-31T03:59:38;18.30;57.50
4097;DHT22;2062;50.694;7.246;2023-07-31T04:02:05;18.30;57.30
4097;DHT22;2062;50.694;7.246;2023-07-31T04:04:32;18.20;57.30
4097;DHT22;2062;50.694;7.246;2023-07-31T04:06:58;18.30;57.40
4097;DHT22;2062;50.694;7.246;2023-07-31T04:09:25;18.20;57.30
4097;DHT22;2062;50.694;7.246;2023-07-31T04:11:52;18.30;57.40
4097;DHT22;2062;50.694;7.246;2023-07-31T04:14:19;18.30;57.30
4097;DHT22;2062;50.694;7.246;2023-07-31T04:16:47;18.30;57.40
4097;DHT22;2062;50.694;7.246;2023-07-31T04:19:14;18.30;57.30
4097;DHT22;2062;50.694;7.246;2023-07-31T04:21:42;18.30;57.30
4097;DHT22;2062;50.694;7.246;2023-07-31T04:24:08;18.30;58.00
4097;DHT22;2062;50.694;7.246;2023-07-31T04:26:35;18.30;57.80
4097;DHT22;2062;50.694;7.246;2023-07-31T04:29:02;18.20;57.20
4097;DHT22;2062;50.694;7.246;2023-07-31T04:31:29;18.30;57.30
4097;DHT22;2062;50.694;7.246;2023-07-31T04:33:57;18.30;57.40
4097;DHT22;2062;50.694;7.246;2023-07-31T04:36:24;18.30;57.40
4097;DHT22;2062;50.694;7.246;2023-07-31T04:38:50;18.30;57.40
4097;DHT22;2062;50.694;7.246;2023-07-31T04:41:17;18.30;57.40
4097;DHT22;2062;50.694;7.246;2023-07-31T04:43:44;18.30;57.50
4097;DHT22;2062;50.694;7.246;2023-07-31T04:46:11;18.30;57.50
4097;DHT22;2062;50.694;7.246;2023-07-31T04:48:37;18.30;57.50
4097;DHT22;2062;50.694;7.246;2023-07-31T04:51:05;18.30;57.50
4097;DHT22;2062;50.694;7.246;2023-07-31T04:53:32;18.30;57.50
4097;DHT22;2062;50.694;7.246;2023-07-31T04:55:59;18.30;57.60
4097;DHT22;2062;50.694;7.246;2023-07-31T04:58:26;18.30;57.60
4097;DHT22;2062;50.694;7.246;2023-07-31T05:00:53;18.30;57.70
4097;DHT22;2062;50.694;7.246;2023-07-31T05:03:19;18.30;57.80
4097;DHT22;2062;50.694;7.246;2023-07-31T05:05:47;18.30;57.70
4097;DHT22;2062;50.694;7.246;2023-07-31T05:08:15;18.30;57.90
4097;DHT22;2062;50.694;7.246;2023-07-31T05:10:43;18.30;57.80
4097;DHT22;2062;50.694;7.246;2023-07-31T05:13:09;18.30;57.80
4097;DHT22;2062;50.694;7.246;2023-07-31T05:15:36;18.30;57.90
4097;DHT22;2062;50.694;7.246;2023-07-31T05:18:03;18.40;57.90
4097;DHT22;2062;50.694;7.246;2023-07-31T05:20:30;18.40;58.00
4097;DHT22;2062;50.694;7.246;2023-07-31T05:22:57;18.40;58.00
4097;DHT22;2062;50.694;7.246;2023-07-31T05:25:25;18.40;58.10
4097;DHT22;2062;50.694;7.246;2023-07-31T05:27:52;18.40;58.30
4097;DHT22;2062;50.694;7.246;2023-07-31T05:30:18;18.40;58.20
4097;DHT22;2062;50.694;7.246;2023-07-31T05:32:46;18.40;58.50
4097;DHT22;2062;50.694;7.246;2023-07-31T05:35:13;18.50;58.70
4097;DHT22;2062;50.694;7.246;2023-07-31T05:37:40;18.40;58.40
4097;DHT22;2062;50.694;7.246;2023-07-31T05:40:07;18.50;59.30
4097;DHT22;2062;50.694;7.246;2023-07-31T05:42:36;18.50;58.80
4097;DHT22;2062;50.694;7.246;2023-07-31T05:45:05;18.50;58.80
4097;DHT22;2062;50.694;7.246;2023-07-31T05:47:32;18.50;58.90
4097;DHT22;2062;50.694;7.246;2023-07-31T05:49:58;18.60;58.80
4097;DHT22;2062;50.694;7.246;2023-07-31T05:52:25;18.60;58.90
4097;DHT22;2062;50.694;7.246;2023-07-31T05:54:54;18.60;59.00
4097;DHT22;2062;50.694;7.246;2023-07-31T05:57:21;18.60;58.90
4097;DHT22;2062;50.694;7.246;2023-07-31T05:59:49;18.60;58.90
4097;DHT22;2062;50.694;7.246;2023-07-31T06:02:16;18.70;58.80
4097;DHT22;2062;50.694;7.246;2023-07-31T06:04:42;18.60;59.10
4097;DHT22;2062;50.694;7.246;2023-07-31T06:07:09;18.70;59.20
4097;DHT22;2062;50.694;7.246;2023-07-31T06:09:36;18.60;59.00
4097;DHT22;2062;50.694;7.246;2023-07-31T06:12:03;18.70;59.20
4097;DHT22;2062;50.694;7.246;2023-07-31T06:14:30;18.70;59.10
4097;DHT22;2062;50.694;7.246;2023-07-31T06:16:58;18.70;59.30
4097;DHT22;2062;50.694;7.246;2023-07-31T06:19:25;18.70;59.20
4097;DHT22;2062;50.694;7.246;2023-07-31T06:21:52;18.80;59.30
4097;DHT22;2062;50.694;7.246;2023-07-31T06:24:19;18.80;59.20
4097;DHT22;2062;50.694;7.246;2023-07-31T06:26:46;18.80;59.40
4097;DHT22;2062;50.694;7.246;2023-07-31T06:29:13;18.80;59.40
4097;DHT22;2062;50.694;7.246;2023-07-31T06:31:41;18.80;59.70
4097;DHT22;2062;50.694;7.246;2023-07-31T06:34:09;18.80;59.70
4097;DHT22;2062;50.694;7.246;2023-07-31T06:36:35;18.70;59.80
4097;DHT22;2062;50.694;7.246;2023-07-31T06:39:02;18.70;59.80
4097;DHT22;2062;50.694;7.246;2023-07-31T06:41:29;18.70;59.90
4097;DHT22;2062;50.694;7.246;2023-07-31T06:43:56;18.70;60.10
4097;DHT22;2062;50.694;7.246;2023-07-31T06:46:23;18.70;60.20
4097;DHT22;2062;50.694;7.246;2023-07-31T06:48:49;18.70;60.50
4097;DHT22;2062;50.694;7.246;2023-07-31T06:51:17;18.60;60.50
4097;DHT22;2062;50.694;7.246;2023-07-31T06:53:44;18.60;60.70
4097;DHT22;2062;50.694;7.246;2023-07-31T06:56:11;18.60;60.60
4097;DHT22;2062;50.694;7.246;2023-07-31T06:58:38;18.60;60.80
4097;DHT22;2062;50.694;7.246;2023-07-31T07:01:05;18.50;61.10
4097;DHT22;2062;50.694;7.246;2023-07-31T07:03:32;18.50;61.00
4097;DHT22;2062;50.694;7.246;2023-07-31T07:05:59;18.50;61.20
4097;DHT22;2062;50.694;7.246;2023-07-31T07:08:27;18.50;61.30
4097;DHT22;2062;50.694;7.246;2023-07-31T07:10:54;18.60;61.60
4097;DHT22;2062;50.694;7.246;2023-07-31T07:13:21;18.60;61.60
4097;DHT22;2062;50.694;7.246;2023-07-31T07:15:49;18.60;61.50
4097;DHT22;2062;50.694;7.246;2023-07-31T07:18:16;18.60;61.80
4097;DHT22;2062;50.694;7.246;2023-07-31T07:20:46;18.60;61.80
4097;DHT22;2062;50.694;7.246;2023-07-31T07:23:13;18.60;62.30
4097;DHT22;2062;50.694;7.246;2023-07-31T07:25:41;18.60;62.20
4097;DHT22;2062;50.694;7.246;2023-07-31T07:28:08;18.70;62.70
4097;DHT22;2062;50.694;7.246;2023-07-31T07:30:35;18.70;62.70
4097;DHT22;2062;50.694;7.246;2023-07-31T07:33:02;18.80;62.70
4097;DHT22;2062;50.694;7.246;2023-07-31T07:35:29;18.80;62.70
4097;DHT22;2062;50.694;7.246;2023-07-31T07:37:56;18.90;63.20
4097;DHT22;2062;50.694;7.246;2023-07-31T07:40:22;18.90;63.00
4097;DHT22;2062;50.694;7.246;2023-07-31T07:42:51;19.00;62.70
4097;DHT22;2062;50.694;7.246;2023-07-31T07:45:18;19.10;63.10
4097;DHT22;2062;50.694;7.246;2023-07-31T07:47:44;19.10;63.10
4097;DHT22;2062;50.694;7.246;2023-07-31T07:50:11;19.10;62.90
4097;DHT22;2062;50.694;7.246;2023-07-31T07:52:38;19.20;62.80
4097;DHT22;2062;50.694;7.246;2023-07-31T07:55:05;19.20;62.40
4097;DHT22;2062;50.694;7.246;2023-07-31T07:57:32;19.20;62.40
4097;DHT22;2062;50.694;7.246;2023-07-31T08:00:00;19.20;62.40
4097;DHT22;2062;50.694;7.246;2023-07-31T08:02:27;19.20;62.40
4097;DHT22;2062;50.694;7.246;2023-07-31T08:04:54;19.20;62.40
4097;DHT22;2062;50.694;7.246;2023-07-31T08:07:21;19.20;62.30
4097;DHT22;2062;50.694;7.246;2023-07-31T08:09:48;19.20;62.40
4097;DHT22;2062;50.694;7.246;2023-07-31T08:12:15;19.20;62.50
4097;DHT22;2062;50.694;7.246;2023-07-31T08:14:41;19.10;62.60
4097;DHT22;2062;50.694;7.246;2023-07-31T08:17:10;19.10;62.80
4097;DHT22;2062;50.694;7.246;2023-07-31T08:19:36;19.10;62.70
4097;DHT22;2062;50.694;7.246;2023-07-31T08:22:03;19.00;62.80
4097;DHT22;2062;50.694;7.246;2023-07-31T08:24:30;19.00;63.00
4097;DHT22;2062;50.694;7.246;2023-07-31T08:26:57;19.00;63.10
4097;DHT22;2062;50.694;7.246;2023-07-31T08:29:25;19.00;63.00
4097;DHT22;2062;50.694;7.246;2023-07-31T08:31:52;19.00;63.30
4097;DHT22;2062;50.694;7.246;2023-07-31T08:34:20;18.90;63.50
4097;DHT22;2062;50.694;7.246;2023-07-31T08:36:46;18.90;63.70
4097;DHT22;2062;50.694;7.246;2023-07-31T08:39:13;19.00;63.80
4097;DHT22;2062;50.694;7.246;2023-07-31T08:41:40;18.90;64.00
4097;DHT22;2062;50.694;7.246;2023-07-31T08:44:07;18.90;64.20
4097;DHT22;2062;50.694;7.246;2023-07-31T08:46:34;19.00;64.10
4097;DHT22;2062;50.694;7.246;2023-07-31T08:49:02;19.00;64.20
4097;DHT22;2062;50.694;7.246;2023-07-31T08:51:33;18.90;64.10
4097;DHT22;2062;50.694;7.246;2023-07-31T08:54:00;19.00;64.30
4097;DHT22;2062;50.694;7.246;2023-07-31T08:56:29;19.00;64.40
4097;DHT22;2062;50.694;7.246;2023-07-31T08:58:58;19.00;64.40
4097;DHT22;2062;50.694;7.246;2023-07-31T09:01:27;19.00;64.00
4097;DHT22;2062;50.694;7.246;2023-07-31T09:03:56;18.90;64.10
4097;DHT22;2062;50.694;7.246;2023-07-31T09:06:26;19.00;64.10
4097;DHT22;2062;50.694;7.246;2023-07-31T09:08:56;19.00;64.30
4097;DHT22;2062;50.694;7.246;2023-07-31T09:11:24;19.00;64.30
4097;DHT22;2062;50.694;7.246;2023-07-31T09:13:51;19.00;64.20
4097;DHT22;2062;50.694;7.246;2023-07-31T09:16:18;19.00;64.20
4097;DHT22;2062;50.694;7.246;2023-07-31T09:19:03;19.00;64.00
4097;DHT22;2062;50.694;7.246;2023-07-31T09:21:30;19.00;64.10
4097;DHT22;2062;50.694;7.246;2023-07-31T09:23:58;19.00;64.10
4097;DHT22;2062;50.694;7.246;2023-07-31T09:26:32;18.90;64.10
4097;DHT22;2062;50.694;7.246;2023-07-31T09:29:00;18.90;64.10
4097;DHT22;2062;50.694;7.246;2023-07-31T09:31:40;19.00;64.10
4097;DHT22;2062;50.694;7.246;2023-07-31T09:34:07;18.90;64.30
4097;DHT22;2062;50.694;7.246;2023-07-31T09:36:40;18.90;64.20
4097;DHT22;2062;50.694;7.246;2023-07-31T09:39:09;18.90;64.20
4097;DHT22;2062;50.694;7.246;2023-07-31T09:41:37;18.90;64.10
4097;DHT22;2062;50.694;7.246;2023-07-31T09:44:04;18.90;64.30
4097;DHT22;2062;50.694;7.246;2023-07-31T09:46:31;19.00;64.40
4097;DHT22;2062;50.694;7.246;2023-07-31T09:49:07;18.90;64.50
4097;DHT22;2062;50.694;7.246;2023-07-31T09:51:35;18.90;64.60
4097;DHT22;2062;50.694;7.246;2023-07-31T09:54:12;18.90;64.70
4097;DHT22;2062;50.694;7.246;2023-07-31T09:56:42;19.00;64.70
4097;DHT22;2062;50.694;7.246;2023-07-31T09:59:11;19.00;64.90
4097;DHT22;2062;50.694;7.246;2023-07-31T10:01:40;19.00;64.90
4097;DHT22;2062;50.694;7.246;2023-07-31T10:04:07;19.00;64.80
4097;DHT22;2062;50.694;7.246;2023-07-31T10:06:35;19.00;64.90
4097;DHT22;2062;50.694;7.246;2023-07-31T10:09:03;19.00;64.90
4097;DHT22;2062;50.694;7.246;2023-07-31T10:11:35;19.00;64.90
4097;DHT22;2062;50.694;7.246;2023-07-31T10:14:05;19.00;65.00
4097;DHT22;2062;50.694;7.246;2023-07-31T10:16:32;19.00;65.10
4097;DHT22;2062;50.694;7.246;2023-07-31T10:18:59;19.00;64.90
4097;DHT22;2062;50.694;7.246;2023-07-31T10:21:27;19.10;65.30
4097;DHT22;2062;50.694;7.246;2023-07-31T10:23:55;19.00;64.90
4097;DHT22;2062;50.694;7.246;2023-07-31T10:26:23;19.10;64.70
4097;DHT22;2062;50.694;7.246;2023-07-31T10:28:52;19.10;64.80
4097;DHT22;2062;50.694;7.246;2023-07-31T10:31:20;19.10;64.90
4097;DHT22;2062;50.694;7.246;2023-07-31T10:33:48;19.10;64.90
4097;DHT22;2062;50.694;7.246;2023-07-31T10:36:17;19.20;65.00
4097;DHT22;2062;50.694;7.246;2023-07-31T10:38:44;19.10;65.20
4097;DHT22;2062;50.694;7.246;2023-07-31T10:41:11;19.20;65.10
4097;DHT22;2062;50.694;7.246;2023-07-31T10:43:38;19.20;65.10
4097;DHT22;2062;50.694;7.246;2023-07-31T10:46:11;19.20;65.30
4097;DHT22;2062;50.694;7.246;2023-07-31T10:48:39;19.20;65.60
4097;DHT22;2062;50.694;7.246;2023-07-31T10:51:08;19.20;65.40
4097;DHT22;2062;50.694;7.246;2023-07-31T10:53:36;19.30;65.80
4097;DHT22;2062;50.694;7.246;2023-07-31T10:56:04;19.30;65.60
4097;DHT22;2062;50.694;7.246;2023-07-31T10:58:32;19.40;65.50
4097;DHT22;2062;50.694;7.246;2023-07-31T11:01:00;19.40;65.70
4097;DHT22;2062;50.694;7.246;2023-07-31T11:03:42;19.50;65.70
4097;DHT22;2062;50.694;7.246;2023-07-31T11:06:10;19.60;65.80
4097;DHT22;2062;50.694;7.246;2023-07-31T11:08:42;19.70;65.70
4097;DHT22;2062;50.694;7.246;2023-07-31T11:11:10;19.70;65.50
4097;DHT22;2062;50.694;7.246;2023-07-31T11:13:44;19.80;65.40
4097;DHT22;2062;50.694;7.246;2023-07-31T11:16:12;19.80;64.90
4097;DHT22;2062;50.694;7.246;2023-07-31T11:18:41;19.90;64.50
4097;DHT22;2062;50.694;7.246;2023-07-31T11:21:08;19.90;65.30
4097;DHT22;2062;50.694;7.246;2023-07-31T11:23:38;20.00;64.10
4097;DHT22;2062;50.694;7.246;2023-07-31T11:26:05;20.00;63.90
4097;DHT22;2062;50.694;7.246;2023-07-31T11:28:33;20.00;63.40
4097;DHT22;2062;50.694;7.246;2023-07-31T11:31:01;20.10;63.40
4097;DHT22;2062;50.694;7.246;2023-07-31T11:33:28;20.10;63.00
4097;DHT22;2062;50.694;7.246;2023-07-31T11:35:56;20.20;62.70
4097;DHT22;2062;50.694;7.246;2023-07-31T11:38:25;20.10;63.10
4097;DHT22;2062;50.694;7.246;2023-07-31T11:40:53;20.20;62.00
4097;DHT22;2062;50.694;7.246;2023-07-31T11:43:20;20.20;63.00
4097;DHT22;2062;50.694;7.246;2023-07-31T11:45:48;20.20;61.80
4097;DHT22;2062;50.694;7.246;2023-07-31T11:48:22;20.20;62.60
4097;DHT22;2062;50.694;7.246;2023-07-31T11:50:51;20.20;61.90
4097;DHT22;2062;50.694;7.246;2023-07-31T11:53:22;20.20;63.10
4097;DHT22;2062;50.694;7.246;2023-07-31T11:55:52;20.20;62.60
4097;DHT22;2062;50.694;7.246;2023-07-31T11:58:19;20.20;62.80
4097;DHT22;2062;50.694;7.246;2023-07-31T12:00:46;20.30;63.00
4097;DHT22;2062;50.694;7.246;2023-07-31T12:03:14;20.30;63.30
4097;DHT22;2062;50.694;7.246;2023-07-31T12:05:41;20.30;63.30
4097;DHT22;2062;50.694;7.246;2023-07-31T12:08:11;20.30;63.90
4097;DHT22;2062;50.694;7.246;2023-07-31T12:10:40;20.40;63.80
4097;DHT22;2062;50.694;7.246;2023-07-31T12:13:08;20.40;63.80
4097;DHT22;2062;50.694;7.246;2023-07-31T12:15:39;20.50;63.80
4097;DHT22;2062;50.694;7.246;2023-07-31T12:18:09;20.50;63.90
4097;DHT22;2062;50.694;7.246;2023-07-31T12:20:41;20.60;63.80
4097;DHT22;2062;50.694;7.246;2023-07-31T12:23:13;20.70;64.10
4097;DHT22;2062;50.694;7.246;2023-07-31T12:25:42;20.80;64.10
4097;DHT22;2062;50.694;7.246;2023-07-31T12:28:09;20.90;64.20
4097;DHT22;2062;50.694;7.246;2023-07-31T12:30:38;21.00;63.90
4097;DHT22;2062;50.694;7.246;2023-07-31T12:33:07;21.10;63.70
4097;DHT22;2062;50.694;7.246;2023-07-31T12:35:38;21.10;63.20
4097;DHT22;2062;50.694;7.246;2023-07-31T12:38:07;21.20;63.60
4097;DHT22;2062;50.694;7.246;2023-07-31T12:40:37;21.30;62.20
4097;DHT22;2062;50.694;7.246;2023-07-31T12:43:06;21.40;62.00
4097;DHT22;2062;50.694;7.246;2023-07-31T12:45:34;21.40;61.50
4097;DHT22;2062;50.694;7.246;2023-07-31T12:48:01;21.40;61.30
4097;DHT22;2062;50.694;7.246;2023-07-31T12:50:28;21.50;60.60
4097;DHT22;2062;50.694;7.246;2023-07-31T12:52:55;21.50;60.10
4097;DHT22;2062;50.694;7.246;2023-07-31T12:55:22;21.50;60.10
4097;DHT22;2062;50.694;7.246;2023-07-31T12:57:49;21.50;59.50
4097;DHT22;2062;50.694;7.246;2023-07-31T13:00:17;21.50;59.30
4097;DHT22;2062;50.694;7.246;2023-07-31T13:02:44;21.50;59.50
4097;DHT22;2062;50.694;7.246;2023-07-31T13:05:11;21.50;59.20
4097;DHT22;2062;50.694;7.246;2023-07-31T13:07:38;21.40;59.20
4097;DHT22;2062;50.694;7.246;2023-07-31T13:10:07;21.40;59.10
4097;DHT22;2062;50.694;7.246;2023-07-31T13:12:34;21.40;59.00
4097;DHT22;2062;50.694;7.246;2023-07-31T13:15:00;21.40;58.70
4097;DHT22;2062;50.694;7.246;2023-07-31T13:17:28;21.30;58.70
4097;DHT22;2062;50.694;7.246;2023-07-31T13:19:55;21.40;58.40
4097;DHT22;2062;50.694;7.246;2023-07-31T13:22:22;21.30;58.40
4097;DHT22;2062;50.694;7.246;2023-07-31T13:24:49;21.30;58.40
4097;DHT22;2062;50.694;7.246;2023-07-31T13:27:16;21.30;58.60
4097;DHT22;2062;50.694;7.246;2023-07-31T13:29:45;21.30;58.40
4097;DHT22;2062;50.694;7.246;2023-07-31T13:32:12;21.30;58.50
4097;DHT22;2062;50.694;7.246;2023-07-31T13:34:40;21.30;58.60
4097;DHT22;2062;50.694;7.246;2023-07-31T13:37:07;21.30;58.70
4097;DHT22;2062;50.694;7.246;2023-07-31T13:39:34;21.30;58.60
4097;DHT22;2062;50.694;7.246;2023-07-31T13:42:02;21.30;58.60
4097;DHT22;2062;50.694;7.246;2023-07-31T13:44:32;21.30;58.70
4097;DHT22;2062;50.694;7.246;2023-07-31T13:46:59;21.30;58.60
4097;DHT22;2062;50.694;7.246;2023-07-31T13:49:25;21.30;58.80
4097;DHT22;2062;50.694;7.246;2023-07-31T13:51:53;21.30;58.80
4097;DHT22;2062;50.694;7.246;2023-07-31T13:54:20;21.40;58.80
4097;DHT22;2062;50.694;7.246;2023-07-31T13:56:47;21.40;58.60
4097;DHT22;2062;50.694;7.246;2023-07-31T13:59:14;21.50;58.60
4097;DHT22;2062;50.694;7.246;2023-07-31T14:01:42;21.50;58.70
4097;DHT22;2062;50.694;7.246;2023-07-31T14:04:09;21.50;58.60
4097;DHT22;2062;50.694;7.246;2023-07-31T14:06:36;21.60;58.50
4097;DHT22;2062;50.694;7.246;2023-07-31T14:09:05;21.60;58.50
4097;DHT22;2062;50.694;7.246;2023-07-31T14:11:32;21.70;58.20
4097;DHT22;2062;50.694;7.246;2023-07-31T14:13:59;21.70;58.20
4097;DHT22;2062;50.694;7.246;2023-07-31T14:16:26;21.80;58.00
4097;DHT22;2062;50.694;7.246;2023-07-31T14:18:53;21.80;57.80
4097;DHT22;2062;50.694;7.246;2023-07-31T14:21:20;21.80;57.50
4097;DHT22;2062;50.694;7.246;2023-07-31T14:23:47;21.80;57.50
4097;DHT22;2062;50.694;7.246;2023-07-31T14:26:15;21.80;57.40
4097;DHT22;2062;50.694;7.246;2023-07-31T14:28:42;21.80;57.40
4097;DHT22;2062;50.694;7.246;2023-07-31T14:31:09;21.80;56.80
4097;DHT22;2062;50.694;7.246;2023-07-31T14:33:36;21.80;57.00
4097;DHT22;2062;50.694;7.246;2023-07-31T14:36:02;21.70;56.90
4097;DHT22;2062;50.694;7.246;2023-07-31T14:38:29;21.80;57.10
4097;DHT22;2062;50.694;7.246;2023-07-31T14:40:56;21.80;56.90
4097;DHT22;2062;50.694;7.246;2023-07-31T14:43:24;21.80;56.60
4097;DHT22;2062;50.694;7.246;2023-07-31T14:45:51;21.70;56.00
4097;DHT22;2062;50.694;7.246;2023-07-31T14:48:18;21.70;56.50
4097;DHT22;2062;50.694;7.246;2023-07-31T14:50:45;21.60;56.40
4097;DHT22;2062;50.694;7.246;2023-07-31T14:53:12;21.60;56.60
4097;DHT22;2062;50.694;7.246;2023-07-31T14:55:39;21.50;55.70
4097;DHT22;2062;50.694;7.246;2023-07-31T14:58:06;21.50;55.90
4097;DHT22;2062;50.694;7.246;2023-07-31T15:00:34;21.50;55.70
4097;DHT22;2062;50.694;7.246;2023-07-31T15:03:01;21.40;55.40
4097;DHT22;2062;50.694;7.246;2023-07-31T15:05:28;21.40;55.60
4097;DHT22;2062;50.694;7.246;2023-07-31T15:07:55;21.30;55.80
4097;DHT22;2062;50.694;7.246;2023-07-31T15:10:22;21.20;55.70
4097;DHT22;2062;50.694;7.246;2023-07-31T15:12:49;21.20;56.10
4097;DHT22;2062;50.694;7.246;2023-07-31T15:15:16;21.20;56.20
4097;DHT22;2062;50.694;7.246;2023-07-31T15:17:44;21.10;56.00
4097;DHT22;2062;50.694;7.246;2023-07-31T15:20:11;21.10;56.10
4097;DHT22;2062;50.694;7.246;2023-07-31T15:22:38;21.10;56.00
4097;DHT22;2062;50.694;7.246;2023-07-31T15:25:06;21.00;56.20
4097;DHT22;2062;50.694;7.246;2023-07-31T15:27:33;21.00;56.20
4097;DHT22;2062;50.694;7.246;2023-07-31T15:30:00;21.00;56.10
4097;DHT22;2062;50.694;7.246;2023-07-31T15:32:27;21.00;56.10
4097;DHT22;2062;50.694;7.246;2023-07-31T15:34:55;20.90;56.20
4097;DHT22;2062;50.694;7.246;2023-07-31T15:37:22;20.90;56.20
4097;DHT22;2062;50.694;7.246;2023-07-31T15:39:49;20.90;56.30
4097;DHT22;2062;50.694;7.246;2023-07-31T15:42:15;20.90;56.40
4097;DHT22;2062;50.694;7.246;2023-07-31T15:44:42;20.90;56.40
4097;DHT22;2062;50.694;7.246;2023-07-31T15:47:09;20.90;56.70
4097;DHT22;2062;50.694;7.246;2023-07-31T15:49:36;20.80;56.40
4097;DHT22;2062;50.694;7.246;2023-07-31T15:52:05;20.90;56.70
4097;DHT22;2062;50.694;7.246;2023-07-31T15:54:32;20.90;56.60
4097;DHT22;2062;50.694;7.246;2023-07-31T15:56:59;20.90;56.70
4097;DHT22;2062;50.694;7.246;2023-07-31T15:59:26;20.80;56.70
4097;DHT22;2062;50.694;7.246;2023-07-31T16:01:53;20.90;56.90
4097;DHT22;2062;50.694;7.246;2023-07-31T16:04:19;20.90;56.60